Time;durP1;ratioP1;P1;durP2;ratioP2;P2;SDS_P1;SDS_P2;PMS_P1;PMS_P2;Temp;Humidity;BMP_temperature;BMP_pressure;BME280_temperature;BME280_humidity;BME280_pressure;Samples;Min_cycle;Max_cycle;Signal;HPM_P1;HPM_P2
2022/11/10 00:00:51;;;;;;;89.20;46.00;;;;;;;6.00;100.00;99103.72;106066;1291;66228;-76
2022/11/10 00:03:18;;;;;;;88.40;47.20;;;;;;;6.02;100.00;99111.91;106320;1285;61306;-77
2022/11/10 00:05:44;;;;;;;74.50;42.90;;;;;;;6.03;100.00;99110.98;106348;1285;62368;-77
2022/11/10 00:08:11;;;;;;;76.60;44.30;;;;;;;6.09;100.00;99111.23;106307;1288;58934;-76
2022/11/10 00:10:57;;;;;;;82.40;45.40;;;;;;;6.11;100.00;99110.98;106321;1285;58918;-76
2022/11/10 00:13:26;;;;;;;78.30;42.80;;;;;;;6.11;100.00;99110.95;106334;1285;64916;-76
2022/11/10 00:18:40;;;;;;;79.20;42.50;;;;;;;6.15;100.00;99107.58;106286;1285;74093;-77
2022/11/10 00:21:09;;;;;;;72.80;43.50;;;;;;;6.19;100.00;99111.68;106068;1284;58953;-76
2022/11/10 00:23:35;;;;;;;73.20;41.70;;;;;;;6.20;100.00;99116.23;106349;1285;58911;-76
2022/11/10 00:26:03;;;;;;;73.50;41.70;;;;;;;6.19;100.00;99116.41;106312;1285;65361;-77
2022/11/10 00:28:31;;;;;;;74.90;42.50;;;;;;;6.19;100.00;99115.55;106317;1282;68792;-77
2022/11/10 00:30:58;;;;;;;70.80;40.20;;;;;;;6.21;100.00;99117.56;106307;1285;64054;-76
2022/11/10 00:33:24;;;;;;;78.10;41.90;;;;;;;6.22;100.00;99115.76;106310;1285;58939;-76
2022/11/10 00:35:51;;;;;;;73.70;41.30;;;;;;;6.22;100.00;99117.35;106319;1285;59372;-76
2022/11/10 00:38:17;;;;;;;66.90;37.30;;;;;;;6.21;100.00;99113.86;106309;1288;58828;-76
2022/11/10 00:40:44;;;;;;;76.60;42.90;;;;;;;6.21;100.00;99112.10;106317;1285;60211;-76
2022/11/10 00:43:10;;;;;;;71.90;39.60;;;;;;;6.22;100.00;99110.48;106309;1282;63916;-76
2022/11/10 00:45:41;;;;;;;72.20;42.00;;;;;;;6.24;100.00;99110.02;106309;1285;58864;-76
2022/11/10 00:48:07;;;;;;;82.60;44.40;;;;;;;6.24;100.00;99102.94;105900;1287;60350;-76
2022/11/10 00:50:33;;;;;;;76.90;41.40;;;;;;;6.23;100.00;99104.74;106299;1285;60618;-77
2022/11/10 00:53:00;;;;;;;72.10;41.60;;;;;;;6.22;100.00;99106.90;106333;1284;59276;-76
2022/11/10 00:55:27;;;;;;;75.80;42.60;;;;;;;6.21;100.00;99106.96;106311;1278;64954;-76
2022/11/10 00:57:53;;;;;;;76.50;42.00;;;;;;;6.20;100.00;99106.30;106309;1285;58893;-76
2022/11/10 01:00:20;;;;;;;75.60;40.80;;;;;;;6.21;100.00;99107.69;106329;1285;58854;-76
2022/11/10 01:02:46;;;;;;;72.10;40.80;;;;;;;6.23;100.00;99111.84;106319;1285;66067;-76
2022/11/10 01:05:13;;;;;;;69.00;38.50;;;;;;;6.23;100.00;99110.22;106314;1278;61284;-76
2022/11/10 01:07:39;;;;;;;70.00;39.90;;;;;;;6.25;100.00;99120.55;106302;1278;64109;-76
2022/11/10 01:10:06;;;;;;;76.60;40.70;;;;;;;6.27;100.00;99127.34;106300;1285;58920;-76
2022/11/10 01:12:33;;;;;;;69.50;40.30;;;;;;;6.28;100.00;99125.53;106322;1285;58880;-76
2022/11/10 01:14:59;;;;;;;73.90;40.50;;;;;;;6.30;100.00;99126.85;106322;1278;67225;-76
2022/11/10 01:17:28;;;;;;;78.90;41.80;;;;;;;6.32;100.00;99132.17;106314;1285;69665;-76
2022/11/10 01:19:55;;;;;;;78.50;42.10;;;;;;;6.32;100.00;99135.55;106051;1293;65210;-77
2022/11/10 01:22:22;;;;;;;71.50;39.50;;;;;;;6.34;100.00;99137.56;106319;1278;59918;-76
2022/11/10 01:24:48;;;;;;;68.20;39.70;;;;;;;6.36;100.00;99137.27;106316;1285;58754;-76
2022/11/10 01:27:15;;;;;;;69.10;40.80;;;;;;;6.39;100.00;99136.11;106326;1285;67125;-76
2022/11/10 01:29:41;;;;;;;67.90;39.20;;;;;;;6.42;100.00;99134.92;106305;1286;61045;-76
2022/11/10 01:32:08;;;;;;;71.30;39.80;;;;;;;6.43;100.00;99135.40;106315;1286;65027;-76
2022/11/10 01:34:34;;;;;;;67.60;38.60;;;;;;;6.45;100.00;99134.41;106084;1281;58911;-76
2022/11/10 01:37:02;;;;;;;63.70;36.90;;;;;;;6.49;100.00;99134.93;106334;1285;58758;-76
2022/11/10 01:39:28;;;;;;;69.10;39.70;;;;;;;6.52;100.00;99140.95;105975;1284;74750;-76
2022/11/10 01:41:55;;;;;;;64.80;38.20;;;;;;;6.53;100.00;99143.55;106316;1278;68907;-76
2022/11/10 01:44:24;;;;;;;68.80;38.90;;;;;;;6.54;100.00;99149.00;106310;1278;58967;-76
2022/11/10 01:46:50;;;;;;;60.00;35.10;;;;;;;6.53;100.00;99149.92;106328;1278;58874;-77
2022/11/10 01:49:21;;;;;;;66.70;37.40;;;;;;;6.54;100.00;99152.70;106317;1285;58692;-76
2022/11/10 01:51:59;;;;;;;65.00;36.60;;;;;;;6.55;100.00;99153.70;106321;1285;67182;-76
2022/11/10 01:54:31;;;;;;;68.10;39.10;;;;;;;6.56;100.00;99156.67;106348;1285;61066;-74
2022/11/10 01:57:05;;;;;;;62.60;36.20;;;;;;;6.55;100.00;99157.04;106322;1287;73730;-76
2022/11/10 01:59:39;;;;;;;67.40;40.40;;;;;;;6.56;100.00;99158.41;106138;1288;59019;-76
2022/11/10 02:02:15;;;;;;;62.70;37.30;;;;;;;6.58;100.00;99163.63;106334;1278;59199;-76
2022/11/10 02:04:42;;;;;;;65.20;36.90;;;;;;;6.59;100.00;99166.05;106335;1285;66476;-77
2022/11/10 02:07:09;;;;;;;62.80;36.90;;;;;;;6.59;100.00;99168.16;106309;1278;61227;-76
2022/11/10 02:09:36;;;;;;;62.90;38.60;;;;;;;6.59;100.00;99165.69;106303;1281;64808;-77
2022/11/10 02:12:03;;;;;;;63.10;36.50;;;;;;;6.62;100.00;99171.05;106316;1284;59004;-76
2022/11/10 02:14:29;;;;;;;70.00;38.20;;;;;;;6.63;100.00;99167.98;106314;1285;58872;-76
2022/11/10 02:16:57;;;;;;;60.90;37.60;;;;;;;6.65;100.00;99170.34;106323;1285;66105;-76
2022/11/10 02:19:25;;;;;;;64.30;38.40;;;;;;;6.67;100.00;99168.64;106327;1285;60126;-76
2022/11/10 02:21:52;;;;;;;65.20;38.80;;;;;;;6.68;100.00;99165.41;106304;1286;65210;-76
2022/11/10 02:24:18;;;;;;;61.20;36.80;;;;;;;6.69;100.00;99169.45;106303;1285;58844;-76
2022/11/10 02:26:55;;;;;;;60.60;37.10;;;;;;;6.70;100.00;99175.77;106331;1285;61353;-76
2022/11/10 02:29:23;;;;;;;63.10;38.30;;;;;;;6.68;100.00;99176.88;106307;1285;67192;-76
2022/11/10 02:31:49;;;;;;;65.40;38.00;;;;;;;6.67;100.00;99176.96;106320;1285;60724;-76
2022/11/10 02:34:16;;;;;;;69.60;38.00;;;;;;;6.64;100.00;99176.59;106297;1285;65053;-75
2022/11/10 02:36:43;;;;;;;64.80;38.30;;;;;;;6.60;100.00;99182.59;106297;1278;58767;-76
2022/11/10 02:39:09;;;;;;;64.90;37.70;;;;;;;6.57;100.00;99185.54;106313;1277;59036;-76
2022/11/10 02:41:36;;;;;;;61.50;37.20;;;;;;;6.56;100.00;99188.09;106321;1285;67176;-76
2022/11/10 02:44:03;;;;;;;65.10;38.60;;;;;;;6.52;100.00;99185.09;105964;1287;61182;-75
2022/11/10 02:46:30;;;;;;;65.50;38.60;;;;;;;6.48;100.00;99185.81;106312;1286;65274;-77
2022/11/10 02:48:56;;;;;;;65.60;37.80;;;;;;;6.44;100.00;99183.35;106313;1278;58836;-76
2022/11/10 02:51:23;;;;;;;62.40;36.00;;;;;;;6.42;100.00;99190.49;106302;1286;58734;-76
2022/11/10 02:53:49;;;;;;;62.40;36.90;;;;;;;6.43;100.00;99192.60;106348;1285;66123;-76
2022/11/10 02:56:16;;;;;;;65.30;36.80;;;;;;;6.43;100.00;99191.68;106306;1285;69644;-75
2022/11/10 02:58:42;;;;;;;68.60;40.20;;;;;;;6.41;100.00;99193.02;106319;1285;65112;-75
2022/11/10 03:01:09;;;;;;;68.00;39.20;;;;;;;6.38;100.00;99195.44;106320;1278;59702;-76
2022/11/10 03:03:36;;;;;;;66.20;40.00;;;;;;;6.35;100.00;99204.94;106304;1284;58694;-76
2022/11/10 03:06:02;;;;;;;74.40;42.60;;;;;;;6.32;100.00;99205.07;106100;1287;64626;-77
2022/11/10 03:08:29;;;;;;;70.10;40.80;;;;;;;6.30;100.00;99207.82;106026;1286;59186;-76
2022/11/10 03:10:56;;;;;;;66.40;38.80;;;;;;;6.29;100.00;99210.54;106327;1286;65170;-76
2022/11/10 03:13:24;;;;;;;68.10;40.70;;;;;;;6.29;100.00;99218.98;106295;1287;59977;-76
2022/11/10 03:15:51;;;;;;;67.00;38.80;;;;;;;6.30;100.00;99222.81;106325;1291;58776;-76
2022/11/10 03:18:17;;;;;;;67.30;38.10;;;;;;;6.33;100.00;99218.42;106325;1279;74514;-76
2022/11/10 03:20:47;;;;;;;65.20;38.70;;;;;;;6.39;100.00;99220.09;106336;1285;61299;-76
2022/11/10 03:23:14;;;;;;;65.10;38.20;;;;;;;6.45;100.00;99219.31;106315;1279;64177;-76
2022/11/10 03:25:41;;;;;;;65.70;38.30;;;;;;;6.50;100.00;99220.66;106325;1277;58784;-76
2022/11/10 03:28:08;;;;;;;63.50;36.60;;;;;;;6.55;100.00;99215.48;106308;1285;58860;-74
2022/11/10 03:30:35;;;;;;;63.80;37.30;;;;;;;6.62;100.00;99219.38;106157;1286;66033;-77
2022/11/10 03:33:02;;;;;;;60.10;36.00;;;;;;;6.69;100.00;99221.20;106307;1271;69708;-77
2022/11/10 03:35:29;;;;;;;57.10;35.30;;;;;;;6.75;100.00;99225.30;106158;1280;65204;-76
2022/11/10 03:37:55;;;;;;;66.50;38.70;;;;;;;6.82;100.00;99230.43;106301;1285;58857;-76
2022/11/10 03:40:22;;;;;;;60.90;36.40;;;;;;;6.89;100.00;99229.77;106288;1284;61510;-76
2022/11/10 03:42:48;;;;;;;58.30;34.60;;;;;;;6.94;100.00;99227.60;106298;1285;73605;-76
2022/11/10 03:45:15;;;;;;;56.40;35.90;;;;;;;6.99;100.00;99225.59;106308;1279;61271;-76
2022/11/10 03:47:46;;;;;;;55.30;34.60;;;;;;;7.03;100.00;99228.02;106320;1278;63696;-77
2022/11/10 03:50:13;;;;;;;54.70;35.30;;;;;;;7.08;100.00;99225.86;106321;1285;59007;-77
2022/11/10 03:52:42;;;;;;;53.50;34.80;;;;;;;7.10;100.00;99226.98;106315;1285;59006;-76
2022/11/10 03:55:15;;;;;;;57.10;36.70;;;;;;;7.12;100.00;99228.11;106340;1283;67257;-76
2022/11/10 03:57:43;;;;;;;64.20;39.20;;;;;;;7.14;100.00;99234.55;106052;1287;60055;-77
2022/11/10 04:00:11;;;;;;;64.80;39.20;;;;;;;7.15;100.00;99235.03;106313;1285;65102;-77
2022/11/10 04:02:38;;;;;;;61.80;40.80;;;;;;;7.16;100.00;99238.15;106296;1278;58777;-77
2022/11/10 04:10:48;;;;;;;62.20;40.10;;;;;;;7.15;100.00;99226.55;106020;1291;61314;-77
2022/11/10 04:16:00;;;;;;;63.50;42.60;;;;;;;7.13;100.00;99230.36;106305;1285;58949;-75
2022/11/10 04:18:28;;;;;;;62.50;41.40;;;;;;;7.12;100.00;99232.18;106352;1285;58766;-76
2022/11/10 04:20:57;;;;;;;68.60;43.10;;;;;;;7.11;100.00;99236.48;106350;1285;66153;-75
2022/11/10 04:23:27;;;;;;;64.60;41.20;;;;;;;7.10;100.00;99240.43;106214;1286;132737;-76
2022/11/10 04:28:55;;;;;;;62.50;41.80;;;;;;;7.04;100.00;99243.70;106296;1285;59161;-76
2022/11/10 04:31:24;;;;;;;60.40;41.90;;;;;;;7.01;100.00;99250.71;106332;1288;59088;-76
2022/11/10 04:33:51;;;;;;;55.60;36.90;;;;;;;7.00;100.00;99257.84;106344;1285;66956;-76
2022/11/10 04:36:21;;;;;;;60.80;39.20;;;;;;;6.99;100.00;99260.52;106312;1285;60014;-76
2022/11/10 04:38:49;;;;;;;65.30;42.80;;;;;;;6.99;100.00;99256.83;105970;1285;64102;-76
2022/11/10 04:41:16;;;;;;;70.90;44.00;;;;;;;6.98;100.00;99259.50;105960;1286;58908;-77
2022/11/10 04:43:43;;;;;;;68.80;45.10;;;;;;;6.99;100.00;99266.02;106341;1284;58764;-75
2022/11/10 04:46:23;;;;;;;67.10;42.80;;;;;;;7.00;100.00;99266.86;106319;1277;65723;-75
2022/11/10 04:48:50;;;;;;;59.40;37.30;;;;;;;7.01;100.00;99265.92;106324;1285;61161;-76
2022/11/10 04:51:18;;;;;;;55.60;36.70;;;;;;;7.02;100.00;99266.41;106300;1285;65100;-75
2022/11/10 04:53:45;;;;;;;58.50;35.90;;;;;;;7.01;100.00;99265.55;106315;1286;58928;-77
2022/11/10 04:56:17;;;;;;;46.90;32.60;;;;;;;7.02;100.00;99260.75;106339;1278;58711;-76
2022/11/10 04:58:44;;;;;;;48.00;30.30;;;;;;;7.05;100.00;99269.95;106305;1285;74914;-75
2022/11/10 05:01:12;;;;;;;50.70;31.00;;;;;;;7.08;100.00;99276.71;106352;1282;61424;-76
2022/11/10 05:03:39;;;;;;;50.70;32.60;;;;;;;7.11;100.00;99284.52;105959;1293;65304;-75
2022/11/10 05:06:06;;;;;;;43.70;30.20;;;;;;;7.14;100.00;99288.81;106373;1285;58867;-76
2022/11/10 05:08:33;;;;;;;45.40;31.50;;;;;;;7.16;100.00;99283.41;106309;1278;59520;-76
2022/11/10 05:10:59;;;;;;;52.20;33.40;;;;;;;7.18;100.00;99280.10;106030;1291;67014;-75
2022/11/10 05:13:26;;;;;;;48.30;31.50;;;;;;;7.21;100.00;99280.16;106337;1285;58962;-76
2022/11/10 05:15:53;;;;;;;44.30;31.30;;;;;;;7.24;100.00;99285.33;106348;1285;73817;-75
2022/11/10 05:18:19;;;;;;;47.80;32.30;;;;;;;7.26;100.00;99284.48;106330;1293;59180;-75
2022/11/10 05:20:46;;;;;;;50.50;31.20;;;;;;;7.29;100.00;99289.14;106346;1285;58895;-75
2022/11/10 05:25:58;;;;;;;45.90;31.30;;;;;;;7.34;100.00;99295.77;106314;1285;61273;-73
2022/11/10 05:28:24;;;;;;;48.30;31.60;;;;;;;7.36;100.00;99300.80;106303;1282;65142;-76
2022/11/10 05:30:51;;;;;;;45.90;31.00;;;;;;;7.39;100.00;99307.35;106340;1278;59796;-76
2022/11/10 05:33:17;;;;;;;44.70;29.90;;;;;;;7.42;100.00;99307.77;106337;1282;59718;-76
2022/11/10 05:35:44;;;;;;;43.80;30.20;;;;;;;7.45;100.00;99312.21;106115;1280;60439;-75
2022/11/10 05:38:10;;;;;;;40.60;29.30;;;;;;;7.49;100.00;99321.71;106331;1285;59663;-76
2022/11/10 05:40:37;;;;;;;45.00;30.30;;;;;;;7.53;100.00;99324.91;106053;1289;64145;-76
2022/11/10 05:43:04;;;;;;;43.80;29.70;;;;;;;7.56;100.00;99324.06;106299;1285;59696;-76
2022/11/10 05:45:30;;;;;;;44.30;29.90;;;;;;;7.60;100.00;99324.76;105961;1291;60054;-76
2022/11/10 05:47:57;;;;;;;39.80;28.00;;;;;;;7.63;100.00;99330.23;106318;1278;77012;-76
2022/11/10 05:50:24;;;;;;;42.30;29.50;;;;;;;7.68;100.00;99337.78;106324;1285;61020;-76
2022/11/10 05:52:53;;;;;;;44.60;29.50;;;;;;;7.74;100.00;99335.93;106301;1286;72864;-76
2022/11/10 05:55:23;;;;;;;44.70;29.80;;;;;;;7.78;100.00;99340.47;106307;1285;59672;-76
2022/11/10 05:57:51;;;;;;;47.00;30.00;;;;;;;7.84;100.00;99346.35;106342;1285;61445;-76
2022/11/10 06:00:21;;;;;;;45.10;29.10;;;;;;;7.89;100.00;99351.42;106312;1286;68187;-76
2022/11/10 06:03:06;;;;;;;44.60;28.00;;;;;;;7.94;100.00;99354.34;106326;1293;67844;-77
2022/11/10 06:05:34;;;;;;;42.80;28.50;;;;;;;7.99;100.00;99358.68;106160;1288;65229;-77
2022/11/10 06:08:03;;;;;;;51.10;30.90;;;;;;;8.03;100.00;99364.13;106018;1284;59674;-77
2022/11/10 06:10:30;;;;;;;45.00;31.40;;;;;;;8.08;100.00;99370.45;106323;1278;59719;-76
2022/11/10 06:12:57;;;;;;;50.50;31.40;;;;;;;8.14;100.00;99382.36;106097;1286;66562;-75
2022/11/10 06:15:23;;;;;;;45.00;30.00;;;;;;;8.20;100.00;99385.61;106317;1285;61786;-76
2022/11/10 06:17:51;;;;;;;50.30;30.80;;;;;;;8.26;100.00;99392.36;106292;1286;65002;-75
2022/11/10 06:20:18;;;;;;;50.90;30.60;;;;;;;8.33;100.00;99394.49;106328;1279;59704;-77
2022/11/10 06:23:01;;;;;;;54.30;31.80;;;;;;;8.39;100.00;99397.59;106153;1281;59717;-76
2022/11/10 06:25:30;;;;;;;47.60;28.90;;;;;;;8.45;100.00;99399.19;105811;1288;75493;-76
2022/11/10 06:27:57;;;;;;;57.20;32.90;;;;;;;8.50;100.00;99402.69;106308;1285;60020;-76
2022/11/10 06:30:24;;;;;;;54.60;31.40;;;;;;;8.55;100.00;99403.11;106300;1285;64086;-75
2022/11/10 06:32:51;;;;;;;53.40;31.60;;;;;;;8.61;100.00;99404.59;106001;1291;59714;-76
2022/11/10 06:35:18;;;;;;;55.80;31.80;;;;;;;8.66;100.00;99409.12;106341;1284;59502;-76
2022/11/10 06:37:45;;;;;;;54.60;32.60;;;;;;;8.70;100.00;99416.16;106276;1285;68007;-77
2022/11/10 06:40:13;;;;;;;50.90;31.60;;;;;;;8.74;100.00;99415.96;106293;1285;59844;-77
2022/11/10 06:42:39;;;;;;;55.40;32.40;;;;;;;8.77;100.00;99422.02;106318;1285;64138;-77
2022/11/10 06:45:07;;;;;;;58.60;34.80;;;;;;;8.78;100.00;99428.09;106315;1284;59785;-76
2022/11/10 06:47:33;;;;;;;53.10;32.60;;;;;;;8.80;100.00;99429.45;105978;1286;59716;-77
2022/11/10 06:50:00;;;;;;;57.40;33.00;;;;;;;8.82;100.00;99436.45;106308;1278;60464;-77
2022/11/10 06:52:27;;;;;;;52.20;32.80;;;;;;;8.82;100.00;99440.33;106041;1286;59780;-76
2022/11/10 06:54:54;;;;;;;53.80;32.20;;;;;;;8.83;100.00;99442.59;105936;1285;65314;-76
2022/11/10 06:57:21;;;;;;;54.70;32.70;;;;;;;8.83;100.00;99447.69;106297;1285;59754;-77
2022/11/10 06:59:47;;;;;;;57.80;33.00;;;;;;;8.85;100.00;99447.10;106351;1285;59935;-77
2022/11/10 07:02:14;;;;;;;56.90;34.30;;;;;;;8.86;100.00;99445.95;106340;1278;65502;-77
2022/11/10 07:04:41;;;;;;;52.10;32.20;;;;;;;8.89;100.00;99451.33;106319;1285;60045;-77
2022/11/10 07:07:09;;;;;;;55.30;34.10;;;;;;;8.91;100.00;99456.36;106311;1284;73007;-77
2022/11/10 07:09:36;;;;;;;53.30;32.60;;;;;;;8.93;100.00;99459.45;106310;1278;60142;-77
2022/11/10 07:12:04;;;;;;;52.70;31.30;;;;;;;8.93;100.00;99460.27;106343;1278;59718;-77
2022/11/10 07:14:30;;;;;;;47.90;31.50;;;;;;;8.93;100.00;99463.47;106332;1285;66760;-77
2022/11/10 07:16:57;;;;;;;53.40;32.40;;;;;;;8.94;100.00;99462.92;106325;1285;67631;-76
2022/11/10 07:19:24;;;;;;;50.20;31.20;;;;;;;8.95;100.00;99463.20;106293;1286;65133;-75
2022/11/10 07:21:50;;;;;;;52.10;31.00;;;;;;;8.96;100.00;99467.61;106300;1279;59683;-75
2022/11/10 07:24:17;;;;;;;55.20;32.70;;;;;;;8.97;100.00;99472.13;106323;1277;60595;-76
2022/11/10 07:26:43;;;;;;;51.10;31.20;;;;;;;8.99;100.00;99477.02;106322;1279;59637;-76
2022/11/10 07:29:10;;;;;;;52.70;31.10;;;;;;;9.00;100.00;99479.95;106359;1284;59645;-75
2022/11/10 07:31:36;;;;;;;51.70;30.30;;;;;;;9.02;100.00;99478.63;106317;1285;64104;-77
2022/11/10 07:34:03;;;;;;;50.80;31.40;;;;;;;9.04;100.00;99479.73;106317;1285;59747;-76
2022/11/10 07:36:29;;;;;;;50.00;30.70;;;;;;;9.06;100.00;99485.48;106330;1285;59557;-76
2022/11/10 07:38:56;;;;;;;53.20;32.70;;;;;;;9.08;100.00;99490.02;106311;1285;60439;-74
2022/11/10 07:41:22;;;;;;;53.40;30.40;;;;;;;9.11;100.00;99494.64;106314;1285;59748;-77
2022/11/10 07:43:49;;;;;;;51.50;31.50;;;;;;;9.16;100.00;99498.09;106322;1285;62429;-76
2022/11/10 07:46:15;;;;;;;50.80;31.30;;;;;;;9.23;100.00;99502.48;106319;1284;59836;-75
2022/11/10 07:48:42;;;;;;;50.10;32.70;;;;;;;9.31;100.00;99502.78;106027;1291;59773;-76
2022/11/10 07:51:09;;;;;;;49.60;30.80;;;;;;;9.41;100.00;99505.24;106288;1286;67802;-76
2022/11/10 07:53:35;;;;;;;51.60;30.70;;;;;;;9.49;100.00;99512.63;106309;1285;61267;-75
2022/11/10 07:56:02;;;;;;;49.70;32.20;;;;;;;9.56;100.00;99512.23;106308;1278;71956;-76
2022/11/10 07:58:29;;;;;;;53.40;34.10;;;;;;;9.64;100.00;99515.19;106327;1284;59747;-75
2022/11/10 08:00:55;;;;;;;49.90;33.60;;;;;;;9.67;100.00;99518.94;106317;1285;59679;-77
2022/11/10 08:03:22;;;;;;;48.90;33.80;;;;;;;9.68;100.00;99523.47;106298;1285;76428;-77
2022/11/10 08:05:49;;;;;;;49.30;33.10;;;;;;;9.67;100.00;99524.91;106322;1286;59975;-76
2022/11/10 08:08:15;;;;;;;49.90;31.90;;;;;;;9.66;100.00;99526.06;105956;1292;72607;-76
2022/11/10 08:10:42;;;;;;;46.40;30.20;;;;;;;9.67;100.00;99525.98;106138;1288;59708;-76
2022/11/10 08:13:11;;;;;;;48.40;31.00;;;;;;;9.70;100.00;99529.97;106302;1285;59614;-75
2022/11/10 08:15:38;;;;;;;47.60;30.30;;;;;;;9.71;100.00;99533.61;106306;1278;74451;-76
2022/11/10 08:18:11;;;;;;;45.50;28.80;;;;;;;9.73;100.00;99538.13;106333;1286;59892;-75
2022/11/10 08:20:38;;;;;;;44.20;29.30;;;;;;;9.79;100.00;99542.42;106298;1285;64509;-76
2022/11/10 08:23:06;;;;;;;50.30;29.10;;;;;;;9.85;100.00;99551.12;106327;1294;59655;-76
2022/11/10 08:25:35;;;;;;;43.50;27.70;;;;;;;9.91;100.00;99554.17;106329;1285;59672;-76
2022/11/10 08:28:10;;;;;;;45.50;28.50;;;;;;;9.94;100.00;99557.73;106332;1284;66563;-76
2022/11/10 08:30:39;;;;;;;48.00;30.10;;;;;;;9.98;100.00;99561.39;106315;1285;60075;-76
2022/11/10 08:33:07;;;;;;;46.70;29.00;;;;;;;10.04;100.00;99563.57;106314;1278;65167;-77
2022/11/10 08:35:36;;;;;;;43.10;27.80;;;;;;;10.07;100.00;99565.48;106300;1285;59700;-76
2022/11/10 08:38:17;;;;;;;48.40;30.70;;;;;;;10.11;100.00;99569.20;106324;1285;60344;-77
2022/11/10 08:40:44;;;;;;;49.00;30.20;;;;;;;10.12;100.00;99574.66;106313;1285;76690;-77
2022/11/10 08:43:11;;;;;;;46.10;30.30;;;;;;;10.12;100.00;99575.70;106327;1285;60080;-76
2022/11/10 08:45:40;;;;;;;46.80;30.40;;;;;;;10.14;100.00;99580.78;106335;1278;73323;-73
2022/11/10 08:48:10;;;;;;;45.90;30.10;;;;;;;10.14;100.00;99583.76;106329;1284;60109;-75
2022/11/10 08:50:37;;;;;;;47.50;30.30;;;;;;;10.15;100.00;99582.30;106325;1285;61522;-76
2022/11/10 08:53:06;;;;;;;46.10;28.70;;;;;;;10.17;100.00;99583.98;106309;1285;66654;-76
2022/11/10 08:55:33;;;;;;;44.20;28.50;;;;;;;10.18;100.00;99587.49;106324;1285;61396;-75
2022/11/10 08:58:02;;;;;;;46.10;30.10;;;;;;;10.20;100.00;99591.42;106319;1285;65229;-75
2022/11/10 09:00:30;;;;;;;46.30;30.00;;;;;;;10.24;100.00;99594.58;106317;1284;60790;-76
2022/11/10 09:03:19;;;;;;;46.80;29.10;;;;;;;10.31;100.00;99601.51;106103;1288;59808;-75
2022/11/10 09:05:47;;;;;;;41.50;26.60;;;;;;;10.38;100.00;99602.68;106140;1288;67999;-75
2022/11/10 09:08:15;;;;;;;41.40;29.40;;;;;;;10.46;100.00;99606.55;106351;1279;61243;-75
2022/11/10 09:10:44;;;;;;;42.50;28.30;;;;;;;10.52;100.00;99605.83;106299;1280;65256;-74
2022/11/10 09:13:12;;;;;;;42.90;28.50;;;;;;;10.60;100.00;99603.60;106310;1284;60383;-75
2022/11/10 09:15:40;;;;;;;41.80;27.70;;;;;;;10.68;100.00;99604.92;106360;1284;59600;-76
2022/11/10 09:18:11;;;;;;;39.80;27.20;;;;;;;10.77;100.00;99608.30;106342;1285;67591;-75
2022/11/10 09:20:39;;;;;;;40.90;28.80;;;;;;;10.85;100.00;99613.54;106311;1284;61270;-76
2022/11/10 09:23:08;;;;;;;40.80;27.00;;;;;;;10.90;100.00;99618.04;106319;1285;64085;-76
2022/11/10 09:25:35;;;;;;;40.70;28.40;;;;;;;10.95;100.00;99630.54;106310;1285;59679;-76
2022/11/10 09:28:03;;;;;;;38.30;26.90;;;;;;;10.99;100.00;99630.30;106303;1285;61337;-76
2022/11/10 09:30:30;;;;;;;40.70;27.30;;;;;;;11.02;100.00;99632.80;106302;1285;76665;-87
2022/11/10 09:32:59;;;;;;;41.10;27.00;;;;;;;11.06;100.00;99630.95;106363;1286;69160;-85
2022/11/10 09:35:26;;;;;;;38.90;26.60;;;;;;;11.09;100.00;99633.27;106120;1285;73565;-77
2022/11/10 09:37:52;;;;;;;39.60;26.70;;;;;;;11.13;100.00;99635.02;106312;1278;59676;-76
2022/11/10 09:40:27;;;;;;;39.30;26.90;;;;;;;11.13;100.00;99637.33;106305;1286;59972;-76
2022/11/10 09:42:58;;;;;;;39.80;25.50;;;;;;;11.09;100.00;99640.41;106360;1278;67975;-75
2022/11/10 09:45:31;;;;;;;41.00;27.70;;;;;;;11.08;100.00;99641.16;106351;1277;59730;-77
2022/11/10 09:48:06;;;;;;;43.10;27.10;;;;;;;11.09;100.00;99642.91;106315;1284;73986;-77
2022/11/10 09:50:43;;;;;;;36.90;25.00;;;;;;;11.09;100.00;99645.73;106301;1286;59610;-76
2022/11/10 09:53:16;;;;;;;39.10;26.70;;;;;;;11.08;100.00;99647.92;106349;1281;59695;-77
2022/11/10 09:55:54;;;;;;;47.10;29.60;;;;;;;11.08;100.00;99650.59;106359;1292;68294;-77
2022/11/10 09:58:25;;;;;;;42.60;26.50;;;;;;;11.08;100.00;99653.97;106332;1278;61254;-76
2022/11/10 10:01:05;;;;;;;38.20;26.80;;;;;;;11.08;100.00;99650.75;106307;1284;74035;-76
2022/11/10 10:03:34;;;;;;;42.00;27.60;;;;;;;11.11;100.00;99656.64;106290;1286;59603;-76
2022/11/10 10:06:09;;;;;;;40.40;26.70;;;;;;;11.11;100.00;99658.77;106333;1286;60372;-76
2022/11/10 10:09:10;;;;;;;38.60;26.60;;;;;;;11.10;100.00;99663.31;106154;1287;65334;-76
2022/11/10 10:12:19;;;;;;;38.10;26.40;;;;;;;11.08;100.00;99666.45;106339;1285;61310;-77
2022/11/10 10:15:07;;;;;;;38.60;27.00;;;;;;;11.05;100.00;99673.52;105672;1294;63822;-76
2022/11/10 10:18:00;;;;;;;40.70;26.20;;;;;;;10.98;100.00;99679.80;105661;1293;60909;-77
2022/11/10 10:20:40;;;;;;;37.40;26.50;;;;;;;10.89;100.00;99684.41;105124;1308;59567;-76
2022/11/10 10:23:33;;;;;;;39.30;26.30;;;;;;;10.83;100.00;99690.29;105124;1302;67761;-76
2022/11/10 10:26:00;;;;;;;39.10;26.80;;;;;;;10.75;100.00;99696.73;105120;1301;67968;-76
2022/11/10 10:28:38;;;;;;;47.20;30.60;;;;;;;10.70;100.00;99695.23;105181;1302;70851;-77
2022/11/10 10:31:34;;;;;;;47.90;32.10;;;;;;;10.68;100.00;99698.02;105220;1301;59909;-76
2022/11/10 10:34:01;;;;;;;43.50;29.70;;;;;;;10.68;100.00;99702.98;104609;1305;61606;-77
2022/11/10 10:36:30;;;;;;;44.30;29.20;;;;;;;10.68;100.00;99698.73;104642;1305;67855;-77
2022/11/10 10:39:01;;;;;;;42.70;30.00;;;;;;;10.67;100.00;99696.64;104568;1307;60021;-77
2022/11/10 10:41:31;;;;;;;43.40;27.90;;;;;;;10.65;100.00;99698.05;104632;1301;62481;-78
2022/11/10 10:44:01;;;;;;;42.80;28.00;;;;;;;10.62;100.00;99701.40;104714;1291;59921;-78
2022/11/10 10:46:30;;;;;;;46.20;29.90;;;;;;;10.60;100.00;99705.07;104698;1301;60125;-77
2022/11/10 10:49:18;;;;;;;46.80;30.70;;;;;;;10.58;100.00;99703.79;104963;1300;65614;-76
2022/11/10 10:51:46;;;;;;;45.70;30.70;;;;;;;10.56;100.00;99707.42;104972;1306;61282;-77
2022/11/10 10:54:27;;;;;;;45.20;29.60;;;;;;;10.55;100.00;99706.91;105102;1300;63951;-75
2022/11/10 10:57:18;;;;;;;46.80;31.10;;;;;;;10.56;100.00;99710.63;105443;1292;59712;-77
2022/11/10 10:59:44;;;;;;;45.40;30.30;;;;;;;10.58;100.00;99708.75;105810;1289;59793;-78
2022/11/10 11:02:26;;;;;;;48.10;31.30;;;;;;;10.61;100.00;99711.05;105872;1290;74945;-76
2022/11/10 11:05:17;;;;;;;42.10;29.30;;;;;;;10.67;100.00;99713.58;105869;1294;59970;-77
2022/11/10 11:07:55;;;;;;;49.10;32.10;;;;;;;10.75;100.00;99712.21;105826;1294;65334;-79
2022/11/10 11:10:29;;;;;;;48.60;29.90;;;;;;;10.82;100.00;99713.47;105840;1292;59753;-78
2022/11/10 11:13:26;;;;;;;46.30;29.30;;;;;;;10.88;100.00;99710.94;106320;1288;59902;-77
2022/11/10 11:15:59;;;;;;;43.10;28.50;;;;;;;11.07;100.00;99712.50;106319;1286;75763;-76
2022/11/10 11:18:29;;;;;;;46.30;30.60;;;;;;;11.22;100.00;99712.19;106312;1284;61351;-76
2022/11/10 11:21:05;;;;;;;44.30;30.40;;;;;;;11.35;100.00;99716.41;106162;1285;65283;-78
2022/11/10 11:23:34;;;;;;;47.10;29.40;;;;;;;11.47;100.00;99716.95;106334;1285;59746;-77
2022/11/10 11:26:11;;;;;;;41.60;28.10;;;;;;;11.57;100.00;99714.09;106312;1277;60092;-77
2022/11/10 11:28:53;;;;;;;44.30;30.30;;;;;;;11.63;100.00;99721.37;106112;1288;68199;-77
2022/11/10 11:31:48;;;;;;;41.20;29.60;;;;;;;11.69;100.00;99730.63;106366;1284;60162;-77
2022/11/10 11:34:33;;;;;;;43.40;30.30;;;;;;;11.75;100.00;99733.98;106323;1286;64513;-77